Time;durP1;ratioP1;P1;durP2;ratioP2;P2;SDS_P1;SDS_P2;PMS_P1;PMS_P2;Temp;Humidity;BMP_temperature;BMP_pressure;BME280_temperature;BME280_humidity;BME280_pressure;Samples;Min_cycle;Max_cycle;Signal;HPM_P1;HPM_P2
2023/10/27 00:00:41;;;;;;;42.58;28.70;;;9.70;99.90;;;;;;7377270;19;20014;-71
2023/10/27 00:03:07;;;;;;;42.13;28.73;;;9.70;99.90;;;;;;7378690;19;20025;-61
2023/10/27 00:05:33;;;;;;;41.60;28.65;;;9.60;99.90;;;;;;7377866;19;20014;-61
2023/10/27 00:07:59;;;;;;;46.17;29.25;;;9.60;99.90;;;;;;7374123;19;20030;-61
2023/10/27 00:10:26;;;;;;;41.65;28.50;;;9.60;99.90;;;;;;7374354;19;20015;-61
2023/10/27 00:12:52;;;;;;;41.70;29.23;;;9.60;99.90;;;;;;7377998;19;20018;-61
2023/10/27 00:15:19;;;;;;;41.00;27.45;;;9.60;99.90;;;;;;7373793;19;20014;-61
2023/10/27 00:17:45;;;;;;;41.63;27.67;;;9.50;99.90;;;;;;7376484;19;20058;-61
2023/10/27 00:20:12;;;;;;;40.42;27.42;;;9.50;99.90;;;;;;7372026;19;20015;-61
2023/10/27 00:22:39;;;;;;;38.88;27.77;;;9.50;99.90;;;;;;7375602;19;20022;-61
2023/10/27 00:25:05;;;;;;;37.58;26.60;;;9.50;99.90;;;;;;7376655;19;20018;-62
2023/10/27 00:27:32;;;;;;;39.03;26.42;;;9.50;99.90;;;;;;7376338;19;20019;-61
2023/10/27 00:29:58;;;;;;;37.72;27.70;;;9.50;99.90;;;;;;7378854;19;20014;-61
2023/10/27 00:32:24;;;;;;;40.80;28.17;;;9.40;99.90;;;;;;7376774;19;20769;-61
2023/10/27 00:34:50;;;;;;;40.33;27.10;;;9.50;99.90;;;;;;7377779;19;20128;-61
2023/10/27 00:37:17;;;;;;;39.65;27.25;;;9.40;99.90;;;;;;7376345;19;20014;-61
2023/10/27 00:39:43;;;;;;;40.95;27.25;;;9.40;99.90;;;;;;7376448;19;20022;-61
2023/10/27 00:42:10;;;;;;;44.03;29.73;;;9.40;99.90;;;;;;7374421;19;20748;-61
2023/10/27 00:44:36;;;;;;;41.40;26.00;;;9.40;99.90;;;;;;7373757;19;20014;-61
2023/10/27 00:47:03;;;;;;;40.10;27.02;;;9.40;99.90;;;;;;7374282;19;20027;-61
2023/10/27 00:49:29;;;;;;;41.22;27.30;;;9.40;99.90;;;;;;7377959;19;20033;-61
2023/10/27 00:51:55;;;;;;;39.67;26.17;;;9.40;99.90;;;;;;7377297;19;20769;-62
2023/10/27 00:54:21;;;;;;;49.10;30.75;;;9.40;99.90;;;;;;7377935;19;20042;-61
2023/10/27 00:56:49;;;;;;;42.38;27.75;;;9.40;99.90;;;;;;7379167;19;20019;-61
2023/10/27 00:59:16;;;;;;;46.40;29.50;;;9.30;99.90;;;;;;7375207;19;20062;-61
2023/10/27 01:01:43;;;;;;;48.88;28.85;;;9.40;99.90;;;;;;7375988;19;20018;-61
2023/10/27 01:04:09;;;;;;;51.65;29.65;;;9.40;99.90;;;;;;7372541;19;20017;-71
2023/10/27 01:06:36;;;;;;;45.58;28.98;;;9.40;99.90;;;;;;7379590;19;20018;-61
2023/10/27 01:09:02;;;;;;;37.42;24.00;;;9.40;99.90;;;;;;7378576;19;20018;-61
2023/10/27 01:11:29;;;;;;;42.53;26.85;;;9.40;99.90;;;;;;7379248;19;20029;-61
2023/10/27 01:13:55;;;;;;;37.83;26.38;;;9.50;99.90;;;;;;7374999;19;20018;-61
2023/10/27 01:16:22;;;;;;;42.35;26.08;;;9.50;99.90;;;;;;7373840;19;20032;-61
2023/10/27 01:18:48;;;;;;;41.03;26.50;;;9.50;99.90;;;;;;7374826;19;20044;-61
2023/10/27 01:21:15;;;;;;;45.45;25.92;;;9.50;99.90;;;;;;7375846;19;20726;-61
2023/10/27 01:23:42;;;;;;;42.35;27.27;;;9.60;99.90;;;;;;7374960;19;20014;-63
2023/10/27 01:26:08;;;;;;;48.35;27.77;;;9.60;99.90;;;;;;7377119;19;20025;-61
2023/10/27 01:28:34;;;;;;;40.25;26.73;;;9.60;99.90;;;;;;7373456;19;20015;-61
2023/10/27 01:31:00;;;;;;;39.83;25.95;;;9.60;99.90;;;;;;7372388;19;20074;-61
2023/10/27 01:33:26;;;;;;;38.72;26.48;;;9.60;99.90;;;;;;7377147;19;20032;-61
2023/10/27 01:35:54;;;;;;;40.70;26.63;;;9.60;99.90;;;;;;7375613;19;20643;-61
2023/10/27 01:38:20;;;;;;;43.92;26.63;;;9.60;99.90;;;;;;7372189;19;20619;-61
2023/10/27 01:40:46;;;;;;;37.80;25.13;;;9.60;99.90;;;;;;7369547;19;20017;-61
2023/10/27 01:43:14;;;;;;;38.83;24.73;;;9.60;99.90;;;;;;7373943;19;20090;-70
2023/10/27 01:45:40;;;;;;;38.63;25.15;;;9.70;99.90;;;;;;7376025;19;20097;-71
2023/10/27 01:48:06;;;;;;;40.92;25.52;;;9.70;99.90;;;;;;7371459;19;20477;-71
2023/10/27 01:50:33;;;;;;;41.70;25.75;;;9.70;99.90;;;;;;7376433;19;20025;-71
2023/10/27 01:52:59;;;;;;;43.45;28.15;;;9.70;99.90;;;;;;7368439;19;20134;-71
2023/10/27 01:55:25;;;;;;;41.22;27.88;;;9.70;99.90;;;;;;7374679;19;20015;-71
2023/10/27 01:57:51;;;;;;;44.00;26.52;;;9.70;99.90;;;;;;7376981;19;20015;-71
2023/10/27 02:00:18;;;;;;;42.80;27.13;;;9.70;99.90;;;;;;7375080;19;20031;-71
2023/10/27 02:02:44;;;;;;;42.15;27.42;;;9.70;99.90;;;;;;7376273;19;20015;-71
2023/10/27 02:05:10;;;;;;;44.25;28.77;;;9.70;99.90;;;;;;7373937;19;20375;-71
2023/10/27 02:07:36;;;;;;;45.75;29.30;;;9.70;99.90;;;;;;7374227;19;20037;-71
2023/10/27 02:10:03;;;;;;;47.65;30.58;;;9.70;99.90;;;;;;7375650;19;20493;-61
2023/10/27 02:12:29;;;;;;;47.80;30.67;;;9.70;99.90;;;;;;7373969;19;20446;-61
2023/10/27 02:14:56;;;;;;;49.55;31.13;;;9.70;99.90;;;;;;7376115;19;20082;-61
2023/10/27 02:17:22;;;;;;;46.58;29.48;;;9.70;99.90;;;;;;7366891;19;20039;-61
2023/10/27 02:19:49;;;;;;;46.28;28.40;;;9.70;99.90;;;;;;7375006;19;20015;-62
2023/10/27 02:22:15;;;;;;;41.40;27.08;;;9.70;99.90;;;;;;7372499;19;20017;-61
2023/10/27 02:24:42;;;;;;;41.97;26.98;;;9.70;99.90;;;;;;7377307;19;20022;-71
2023/10/27 02:27:09;;;;;;;41.10;27.30;;;9.60;99.90;;;;;;7373275;19;20018;-61
2023/10/27 02:29:35;;;;;;;39.28;25.85;;;9.70;99.90;;;;;;7372030;19;20030;-71
2023/10/27 02:32:02;;;;;;;34.58;24.02;;;9.60;99.90;;;;;;7373141;19;20019;-71
2023/10/27 02:34:28;;;;;;;38.63;26.05;;;9.60;99.90;;;;;;7373959;19;20024;-61
2023/10/27 02:36:54;;;;;;;39.15;25.52;;;9.70;99.90;;;;;;7373022;19;20018;-61
2023/10/27 02:39:20;;;;;;;41.70;25.25;;;9.70;99.90;;;;;;7374013;19;20029;-61
2023/10/27 02:41:46;;;;;;;35.15;23.70;;;9.70;99.90;;;;;;7373296;19;20070;-60
2023/10/27 02:44:13;;;;;;;41.67;25.02;;;9.70;99.90;;;;;;7375002;19;20491;-61
2023/10/27 02:46:41;;;;;;;38.30;24.77;;;9.70;99.90;;;;;;7371331;19;20043;-61
2023/10/27 02:49:07;;;;;;;36.35;24.25;;;9.70;99.90;;;;;;7373066;19;20478;-61
2023/10/27 02:51:34;;;;;;;39.10;24.48;;;9.70;99.90;;;;;;7371792;19;20030;-61
2023/10/27 02:54:02;;;;;;;33.35;22.83;;;9.70;99.90;;;;;;7376533;19;20099;-72
2023/10/27 02:56:28;;;;;;;35.00;23.42;;;9.70;99.90;;;;;;7382078;19;20010;-72
2023/10/27 02:58:55;;;;;;;34.78;22.95;;;9.80;99.90;;;;;;7380700;19;20033;-72
2023/10/27 03:01:21;;;;;;;31.67;22.05;;;9.70;99.90;;;;;;7381220;19;20098;-72
2023/10/27 03:03:47;;;;;;;32.10;20.90;;;9.80;99.90;;;;;;7380397;19;20033;-72
2023/10/27 03:06:13;;;;;;;31.42;21.73;;;9.80;99.90;;;;;;7380349;19;20023;-61
2023/10/27 03:08:42;;;;;;;34.78;22.52;;;9.80;99.90;;;;;;7375743;19;20023;-61
2023/10/27 03:11:09;;;;;;;32.83;21.45;;;9.80;99.90;;;;;;7380646;19;20026;-62
2023/10/27 03:13:35;;;;;;;33.35;21.83;;;9.80;99.90;;;;;;7381174;19;20558;-62
2023/10/27 03:16:05;;;;;;;33.05;21.63;;;9.80;99.90;;;;;;7383056;19;20130;-71
2023/10/27 03:18:32;;;;;;;39.28;23.08;;;9.80;99.90;;;;;;7382065;19;20021;-72
2023/10/27 03:21:00;;;;;;;35.55;23.10;;;9.70;99.90;;;;;;7381326;19;20023;-62
2023/10/27 03:23:28;;;;;;;31.17;20.08;;;9.80;99.90;;;;;;7380520;19;20427;-71
2023/10/27 03:25:55;;;;;;;32.75;20.38;;;9.70;99.90;;;;;;7382037;19;20039;-72
2023/10/27 03:28:22;;;;;;;31.60;21.42;;;9.70;99.90;;;;;;7378023;19;20015;-61
2023/10/27 03:30:48;;;;;;;29.73;21.48;;;9.70;99.90;;;;;;7382561;19;20882;-61
2023/10/27 03:33:15;;;;;;;30.30;20.10;;;9.70;99.90;;;;;;7376141;19;20021;-72
2023/10/27 03:35:42;;;;;;;29.35;19.85;;;9.70;99.90;;;;;;7377830;19;20410;-72
2023/10/27 03:38:10;;;;;;;29.92;19.77;;;9.70;99.90;;;;;;7378063;19;20055;-72
2023/10/27 03:40:39;;;;;;;31.33;18.13;;;9.70;99.90;;;;;;7377263;19;20025;-72
2023/10/27 03:43:06;;;;;;;33.17;20.60;;;9.70;99.90;;;;;;7377812;19;20675;-62
2023/10/27 03:45:37;;;;;;;31.08;20.30;;;9.70;99.90;;;;;;7376159;19;20076;-71
2023/10/27 03:48:04;;;;;;;31.67;20.23;;;9.70;99.90;;;;;;7374066;19;20908;-72
2023/10/27 03:50:30;;;;;;;32.08;20.75;;;9.60;99.90;;;;;;7379049;19;20019;-71
2023/10/27 03:52:56;;;;;;;31.25;20.10;;;9.60;99.90;;;;;;7375986;19;20403;-73
2023/10/27 03:55:22;;;;;;;31.73;19.13;;;9.60;99.90;;;;;;7378075;19;20662;-71
2023/10/27 03:57:50;;;;;;;32.97;19.73;;;9.60;99.90;;;;;;7379451;19;20445;-72
2023/10/27 04:00:16;;;;;;;25.92;17.42;;;9.60;99.90;;;;;;7379477;19;20014;-72
2023/10/27 04:02:46;;;;;;;28.35;18.75;;;9.60;99.90;;;;;;7379026;19;20026;-71
2023/10/27 04:05:12;;;;;;;30.80;19.98;;;9.60;99.90;;;;;;7377622;19;20563;-72
2023/10/27 04:07:39;;;;;;;28.23;18.95;;;9.60;99.90;;;;;;7379127;19;20029;-62
2023/10/27 04:10:05;;;;;;;29.08;19.13;;;9.60;99.90;;;;;;7375574;19;20312;-72
2023/10/27 04:12:31;;;;;;;28.23;19.80;;;9.60;99.90;;;;;;7380637;19;20056;-72
2023/10/27 04:14:58;;;;;;;27.75;18.85;;;9.60;99.90;;;;;;7377991;19;20082;-71
2023/10/27 04:17:24;;;;;;;31.38;19.50;;;9.60;99.90;;;;;;7378957;19;20038;-72
2023/10/27 04:19:50;;;;;;;33.00;20.02;;;9.60;99.90;;;;;;7378194;19;20025;-72
2023/10/27 04:22:17;;;;;;;29.17;18.85;;;9.60;99.90;;;;;;7374241;19;20018;-71
2023/10/27 04:24:44;;;;;;;26.67;18.20;;;9.60;99.90;;;;;;7376879;19;20052;-72
2023/10/27 04:27:10;;;;;;;29.75;17.30;;;9.50;99.90;;;;;;7379611;19;20026;-73
2023/10/27 04:29:36;;;;;;;29.67;18.45;;;9.50;99.90;;;;;;7375564;19;20732;-71
2023/10/27 04:32:04;;;;;;;30.85;19.25;;;9.50;99.90;;;;;;7379678;19;20022;-62
2023/10/27 04:34:30;;;;;;;29.02;17.67;;;9.50;99.90;;;;;;7378067;19;20018;-62
2023/10/27 04:36:56;;;;;;;27.30;19.00;;;9.50;99.90;;;;;;7380805;19;20022;-62
2023/10/27 04:39:22;;;;;;;27.27;17.77;;;9.50;99.90;;;;;;7374399;19;20432;-62
2023/10/27 04:41:49;;;;;;;27.65;18.27;;;9.50;99.90;;;;;;7376120;19;20105;-62
2023/10/27 04:44:22;;;;;;;31.00;18.17;;;9.50;99.90;;;;;;7373430;19;20019;-62
2023/10/27 04:46:51;;;;;;;28.73;19.15;;;9.50;99.90;;;;;;7378995;19;20045;-62
2023/10/27 04:49:18;;;;;;;28.08;17.73;;;9.50;99.90;;;;;;7372468;19;20070;-62
2023/10/27 04:51:47;;;;;;;30.23;20.40;;;9.50;99.90;;;;;;7374061;19;20515;-78
2023/10/27 04:54:13;;;;;;;31.60;20.60;;;9.50;99.90;;;;;;7398133;19;20010;-73
2023/10/27 04:56:40;;;;;;;32.35;20.92;;;9.60;99.90;;;;;;7379741;19;20404;-73
2023/10/27 04:59:06;;;;;;;30.13;20.15;;;9.70;99.90;;;;;;7376860;19;20018;-72
2023/10/27 05:01:32;;;;;;;29.00;18.88;;;9.70;99.90;;;;;;7379203;19;20022;-72
2023/10/27 05:03:58;;;;;;;32.20;21.35;;;9.70;99.90;;;;;;7382270;19;20015;-72
2023/10/27 05:06:25;;;;;;;29.77;19.98;;;9.70;99.90;;;;;;7379132;19;20090;-72
2023/10/27 05:08:51;;;;;;;31.63;19.77;;;9.70;99.90;;;;;;7380232;19;20018;-72
2023/10/27 05:11:18;;;;;;;28.05;19.55;;;9.80;99.90;;;;;;7382313;19;20346;-72
2023/10/27 05:13:44;;;;;;;31.90;20.60;;;9.80;99.90;;;;;;7382659;19;20139;-72
2023/10/27 05:20:06;;;;;;;29.90;19.45;;;9.70;99.90;;;;;;7369319;19;20002;-72
2023/10/27 05:22:32;;;;;;;30.98;19.52;;;9.70;99.90;;;;;;7371594;19;20090;-72
2023/10/27 05:25:01;;;;;;;28.00;18.58;;;9.70;99.90;;;;;;7370312;19;20043;-60
2023/10/27 05:27:27;;;;;;;31.05;19.88;;;9.70;99.90;;;;;;7368897;19;20081;-62
2023/10/27 05:29:54;;;;;;;30.58;20.17;;;9.60;99.90;;;;;;7373580;19;20022;-62
2023/10/27 05:32:20;;;;;;;33.20;20.02;;;9.60;99.90;;;;;;7371781;19;20025;-62
2023/10/27 05:34:47;;;;;;;30.92;17.25;;;9.50;99.90;;;;;;7372979;19;20040;-62
2023/10/27 05:37:13;;;;;;;32.33;20.67;;;9.50;99.90;;;;;;7370800;19;20018;-62
2023/10/27 05:39:40;;;;;;;29.42;19.35;;;9.40;99.90;;;;;;7373927;19;20573;-62
2023/10/27 05:42:06;;;;;;;31.27;20.13;;;9.40;99.90;;;;;;7371839;19;20557;-62
2023/10/27 05:44:32;;;;;;;34.80;21.17;;;9.40;99.90;;;;;;7372449;19;20017;-62
2023/10/27 05:46:59;;;;;;;32.80;20.80;;;9.40;99.90;;;;;;7369958;19;20781;-59
2023/10/27 05:49:25;;;;;;;38.05;20.85;;;9.30;99.90;;;;;;7372350;19;20018;-62
2023/10/27 05:51:51;;;;;;;34.08;20.88;;;9.30;99.90;;;;;;7370698;19;20021;-62
2023/10/27 05:54:18;;;;;;;31.15;18.95;;;9.30;99.90;;;;;;7372053;19;20493;-62
2023/10/27 05:56:44;;;;;;;34.00;20.13;;;9.30;99.90;;;;;;7375766;19;20014;-62
2023/10/27 05:59:10;;;;;;;35.97;20.80;;;9.30;99.90;;;;;;7372596;19;20010;-70
2023/10/27 06:01:36;;;;;;;35.42;22.73;;;9.30;99.90;;;;;;7373474;19;20015;-62
2023/10/27 06:04:03;;;;;;;34.22;21.75;;;9.30;99.90;;;;;;7367098;19;20022;-71
2023/10/27 06:06:29;;;;;;;36.35;21.48;;;9.20;99.90;;;;;;7369224;19;20022;-62
2023/10/27 06:08:55;;;;;;;34.78;20.65;;;9.20;99.90;;;;;;7372109;19;20529;-71
2023/10/27 06:11:24;;;;;;;34.00;21.88;;;9.20;99.90;;;;;;7370300;19;20014;-61
2023/10/27 06:13:51;;;;;;;34.72;21.98;;;9.20;99.90;;;;;;7367892;19;20034;-62
2023/10/27 06:16:17;;;;;;;37.28;22.30;;;9.30;99.90;;;;;;7374013;19;20039;-63
2023/10/27 06:18:43;;;;;;;34.67;21.80;;;9.20;99.90;;;;;;7371327;19;20506;-71
2023/10/27 06:21:09;;;;;;;34.97;21.33;;;9.20;99.90;;;;;;7372802;19;20477;-62
2023/10/27 06:23:35;;;;;;;37.47;21.65;;;9.20;99.90;;;;;;7370593;19;20483;-72
2023/10/27 06:26:03;;;;;;;36.42;21.50;;;9.20;99.90;;;;;;7372479;19;20036;-71
2023/10/27 06:28:29;;;;;;;38.97;22.88;;;9.20;99.90;;;;;;7370036;19;20019;-72
2023/10/27 06:30:55;;;;;;;40.67;23.15;;;9.20;99.90;;;;;;7372630;19;20022;-68
2023/10/27 06:33:22;;;;;;;33.75;21.33;;;9.20;99.90;;;;;;7374101;19;20019;-73
2023/10/27 06:35:49;;;;;;;36.95;23.27;;;9.20;99.90;;;;;;7371152;19;20396;-72
2023/10/27 06:38:15;;;;;;;35.22;22.83;;;9.20;99.90;;;;;;7372514;19;20082;-72
2023/10/27 06:40:41;;;;;;;33.22;21.63;;;9.20;99.90;;;;;;7368879;19;20022;-64
2023/10/27 06:43:08;;;;;;;37.83;22.55;;;9.20;99.90;;;;;;7371399;19;20043;-62
2023/10/27 06:45:34;;;;;;;33.67;22.00;;;9.20;99.90;;;;;;7371212;19;20022;-62
2023/10/27 06:48:01;;;;;;;36.90;22.50;;;9.30;99.90;;;;;;7372234;19;20093;-62
2023/10/27 06:50:27;;;;;;;40.47;24.20;;;9.30;99.90;;;;;;7371163;19;20017;-62
2023/10/27 06:52:53;;;;;;;39.22;23.67;;;9.30;99.90;;;;;;7365253;19;20029;-64
2023/10/27 06:55:21;;;;;;;33.90;21.55;;;9.40;99.90;;;;;;7367761;19;20475;-63
2023/10/27 06:57:47;;;;;;;35.58;23.27;;;9.30;99.90;;;;;;7371841;19;20502;-63
2023/10/27 07:00:15;;;;;;;35.08;23.55;;;9.30;99.90;;;;;;7369214;19;20041;-63
2023/10/27 07:02:41;;;;;;;32.60;20.52;;;9.30;99.90;;;;;;7369891;19;20493;-62
2023/10/27 07:05:11;;;;;;;36.42;24.48;;;9.30;99.90;;;;;;7369547;19;20018;-63
2023/10/27 07:07:38;;;;;;;35.85;22.85;;;9.30;99.90;;;;;;7363223;19;20030;-63
2023/10/27 07:10:04;;;;;;;34.22;21.77;;;9.30;99.90;;;;;;7372323;19;20010;-63
2023/10/27 07:12:31;;;;;;;38.10;23.00;;;9.30;99.90;;;;;;7364259;19;21041;-63
2023/10/27 07:14:57;;;;;;;32.47;22.00;;;9.30;99.90;;;;;;7369367;19;20264;-63
2023/10/27 07:17:23;;;;;;;29.95;19.23;;;9.30;99.90;;;;;;7365373;19;20022;-63
2023/10/27 07:19:50;;;;;;;37.63;22.13;;;9.30;99.90;;;;;;7371545;19;20052;-63
2023/10/27 07:22:19;;;;;;;32.88;22.45;;;9.30;99.90;;;;;;7368393;19;20029;-64
2023/10/27 07:24:49;;;;;;;35.08;20.13;;;9.30;99.90;;;;;;7368687;19;20074;-63
2023/10/27 07:27:24;;;;;;;34.28;21.73;;;9.40;99.90;;;;;;7367259;19;20018;-63
2023/10/27 07:29:50;;;;;;;32.50;22.30;;;9.40;99.90;;;;;;7369600;19;20030;-63
2023/10/27 07:32:16;;;;;;;33.58;21.40;;;9.40;99.90;;;;;;7368609;19;20102;-63
2023/10/27 07:34:42;;;;;;;36.67;21.52;;;9.40;99.90;;;;;;7366176;19;20365;-63
2023/10/27 07:37:09;;;;;;;33.08;21.77;;;9.40;99.90;;;;;;7366835;19;20141;-63
2023/10/27 07:39:35;;;;;;;33.83;21.90;;;9.50;99.90;;;;;;7373209;19;20026;-63
2023/10/27 07:42:03;;;;;;;35.20;22.55;;;9.50;99.90;;;;;;7373018;19;20019;-63
2023/10/27 07:44:29;;;;;;;32.70;21.45;;;9.50;99.90;;;;;;7375593;19;20010;-73
2023/10/27 07:46:55;;;;;;;31.58;21.65;;;9.50;99.90;;;;;;7377370;19;20110;-72
2023/10/27 07:49:23;;;;;;;33.92;19.92;;;9.50;99.90;;;;;;7377011;19;20027;-73
2023/10/27 07:51:49;;;;;;;27.67;19.55;;;9.60;99.90;;;;;;7378057;19;20026;-73
2023/10/27 07:54:16;;;;;;;32.33;21.52;;;9.60;99.90;;;;;;7371443;19;20038;-73
2023/10/27 07:56:44;;;;;;;30.35;19.40;;;9.60;99.90;;;;;;7379577;19;20027;-63
2023/10/27 07:59:10;;;;;;;28.67;19.20;;;9.60;99.90;;;;;;7378398;19;20028;-66
2023/10/27 08:01:37;;;;;;;33.05;20.75;;;9.60;99.90;;;;;;7379182;19;20054;-75
2023/10/27 08:04:05;;;;;;;32.10;21.23;;;9.60;99.90;;;;;;7380283;19;20022;-74
2023/10/27 08:06:32;;;;;;;30.42;20.45;;;9.70;99.90;;;;;;7381917;19;20652;-74
2023/10/27 08:08:59;;;;;;;28.98;19.08;;;9.70;99.90;;;;;;7378373;19;20031;-74
2023/10/27 08:11:25;;;;;;;30.27;20.42;;;9.70;99.90;;;;;;7379459;19;20833;-75
2023/10/27 08:13:52;;;;;;;31.77;20.45;;;9.70;99.90;;;;;;7381967;19;20011;-75
2023/10/27 08:16:18;;;;;;;39.22;27.20;;;9.80;99.90;;;;;;7377782;19;20018;-75
2023/10/27 08:18:45;;;;;;;28.05;17.08;;;9.80;99.90;;;;;;7382106;19;20111;-75
2023/10/27 08:21:11;;;;;;;29.38;20.58;;;9.80;99.90;;;;;;7379869;19;20015;-75
2023/10/27 08:23:37;;;;;;;29.85;19.65;;;9.80;99.90;;;;;;7380943;19;20387;-75
2023/10/27 08:26:03;;;;;;;30.95;19.40;;;9.80;99.90;;;;;;7380856;19;20026;-75
2023/10/27 08:28:30;;;;;;;32.08;18.98;;;9.90;99.90;;;;;;7379803;19;20118;-62
2023/10/27 08:30:56;;;;;;;27.92;18.48;;;10.00;99.90;;;;;;7376156;19;20856;-74
2023/10/27 08:33:23;;;;;;;29.48;21.10;;;10.00;99.90;;;;;;7379661;19;20018;-75
2023/10/27 08:35:50;;;;;;;28.85;20.10;;;10.00;99.90;;;;;;7378366;19;20053;-75
2023/10/27 08:38:16;;;;;;;29.30;18.80;;;10.10;99.90;;;;;;7377711;19;20034;-62
2023/10/27 08:40:42;;;;;;;29.63;19.85;;;10.10;99.90;;;;;;7379098;19;20582;-75
2023/10/27 08:43:10;;;;;;;27.08;18.48;;;10.00;99.90;;;;;;7377821;19;20018;-74
2023/10/27 08:45:37;;;;;;;30.25;19.65;;;10.00;99.90;;;;;;7376538;19;20015;-59
2023/10/27 08:48:03;;;;;;;26.85;18.67;;;10.10;99.90;;;;;;7376540;19;20022;-62
2023/10/27 08:50:31;;;;;;;30.70;19.88;;;10.10;99.90;;;;;;7374079;19;20042;-62
2023/10/27 08:52:59;;;;;;;29.30;19.65;;;10.10;99.90;;;;;;7375471;19;20291;-62
2023/10/27 08:55:26;;;;;;;28.55;19.23;;;10.10;99.90;;;;;;7368603;19;20018;-62
2023/10/27 08:57:57;;;;;;;27.08;18.58;;;10.10;99.90;;;;;;7375481;19;20018;-63
2023/10/27 09:00:24;;;;;;;27.33;19.50;;;10.10;99.90;;;;;;7371781;19;20789;-63
2023/10/27 09:02:50;;;;;;;27.85;16.80;;;10.10;99.90;;;;;;7375624;19;20393;-63
2023/10/27 09:05:17;;;;;;;29.73;18.85;;;10.10;99.90;;;;;;7371541;19;20090;-63
2023/10/27 09:07:43;;;;;;;28.13;18.73;;;10.20;99.90;;;;;;7372387;19;20021;-63
2023/10/27 09:10:10;;;;;;;27.40;18.15;;;10.20;99.90;;;;;;7373838;19;20029;-75
2023/10/27 09:12:37;;;;;;;26.10;16.58;;;10.20;99.90;;;;;;7377072;19;20023;-73
2023/10/27 09:15:04;;;;;;;30.83;19.00;;;10.10;99.90;;;;;;7377515;19;20130;-70
2023/10/27 09:17:49;;;;;;;27.05;17.10;;;10.10;99.90;;;;;;7375391;19;20081;-74
2023/10/27 09:20:16;;;;;;;26.63;16.48;;;10.10;99.90;;;;;;7375910;19;20018;-75
2023/10/27 09:22:58;;;;;;;25.58;17.88;;;10.20;99.90;;;;;;7377485;19;20011;-75
2023/10/27 09:25:28;;;;;;;28.42;17.58;;;10.20;99.90;;;;;;7379118;19;20501;-76
2023/10/27 09:28:00;;;;;;;28.65;18.50;;;10.20;99.90;;;;;;7373514;19;20029;-75
2023/10/27 09:30:29;;;;;;;30.23;19.35;;;10.20;99.90;;;;;;7372411;19;20022;-64
2023/10/27 09:33:10;;;;;;;28.95;18.48;;;10.20;99.90;;;;;;7373680;19;20021;-75
2023/10/27 09:35:37;;;;;;;28.17;19.13;;;10.20;99.90;;;;;;7374742;19;20047;-63
2023/10/27 09:38:03;;;;;;;31.73;19.88;;;10.20;99.90;;;;;;7370250;19;20034;-63
2023/10/27 09:40:29;;;;;;;28.95;19.85;;;10.20;99.90;;;;;;7373295;19;20081;-75
2023/10/27 09:42:58;;;;;;;26.77;16.00;;;10.20;99.90;;;;;;7375587;19;20010;-63
2023/10/27 09:45:28;;;;;;;33.25;18.48;;;10.20;99.90;;;;;;7371831;19;20035;-63
2023/10/27 09:48:05;;;;;;;27.63;17.13;;;10.20;99.90;;;;;;7370089;19;20022;-63
2023/10/27 09:50:33;;;;;;;29.33;18.38;;;10.20;99.90;;;;;;7373416;19;20015;-63
2023/10/27 09:53:02;;;;;;;27.88;16.85;;;10.20;99.90;;;;;;7368285;19;20014;-64
2023/10/27 09:55:33;;;;;;;30.33;18.63;;;10.20;99.90;;;;;;7372340;19;20031;-63
2023/10/27 09:58:01;;;;;;;28.95;19.05;;;10.20;99.90;;;;;;7375964;19;20055;-72
2023/10/27 10:00:31;;;;;;;29.25;19.08;;;10.20;99.90;;;;;;7372621;19;20510;-65
2023/10/27 10:02:59;;;;;;;33.53;20.45;;;10.20;99.90;;;;;;7371542;19;20015;-72
2023/10/27 10:05:26;;;;;;;32.28;21.58;;;10.30;99.90;;;;;;7380676;19;20010;-71
2023/10/27 10:07:52;;;;;;;32.22;18.65;;;10.40;99.90;;;;;;7378483;19;20134;-63
2023/10/27 10:10:22;;;;;;;31.60;19.42;;;10.20;99.90;;;;;;7375911;19;20022;-64
2023/10/27 10:13:06;;;;;;;30.08;19.08;;;10.30;99.90;;;;;;7375200;19;20078;-64
2023/10/27 10:15:38;;;;;;;34.40;20.05;;;10.30;99.90;;;;;;7375735;19;20052;-70
2023/10/27 10:18:07;;;;;;;33.75;18.70;;;10.30;99.90;;;;;;7379225;19;20102;-70
2023/10/27 10:20:45;;;;;;;24.25;13.75;;;10.30;99.90;;;;;;7378997;19;20047;-70
2023/10/27 10:23:12;;;;;;;31.60;18.73;;;10.30;99.90;;;;;;7377474;19;20482;-69
2023/10/27 10:25:59;;;;;;;35.40;20.08;;;10.30;99.90;;;;;;7379625;19;20039;-69
2023/10/27 10:28:28;;;;;;;33.22;18.90;;;10.30;99.90;;;;;;7377863;19;20589;-69
2023/10/27 10:31:07;;;;;;;35.88;19.55;;;10.30;99.90;;;;;;7378188;19;20045;-70
2023/10/27 10:33:34;;;;;;;28.90;19.10;;;10.30;99.90;;;;;;7377600;19;20505;-70
2023/10/27 10:36:14;;;;;;;34.30;21.23;;;10.30;99.90;;;;;;7377692;19;20853;-70
2023/10/27 10:38:45;;;;;;;38.45;22.10;;;10.30;99.90;;;;;;7378123;19;20052;-69
2023/10/27 10:41:13;;;;;;;33.28;21.05;;;10.40;99.90;;;;;;7375549;19;20027;-70
2023/10/27 10:43:41;;;;;;;32.15;19.75;;;10.40;99.90;;;;;;7372479;19;21942;-65
2023/10/27 10:46:11;;;;;;;34.80;21.88;;;10.40;99.90;;;;;;7370705;19;20031;-64
2023/10/27 10:48:46;;;;;;;35.90;22.92;;;10.50;99.90;;;;;;7371919;19;20032;-71
2023/10/27 10:51:15;;;;;;;36.33;21.15;;;10.50;99.90;;;;;;7377028;19;20033;-71
2023/10/27 10:53:43;;;;;;;31.25;19.75;;;10.50;99.90;;;;;;7375969;19;20022;-71
2023/10/27 10:56:10;;;;;;;38.13;21.40;;;10.50;99.90;;;;;;7374910;19;20025;-71
2023/10/27 10:58:39;;;;;;;35.53;21.58;;;10.50;99.90;;;;;;7374714;19;20042;-70
2023/10/27 11:01:15;;;;;;;38.80;23.60;;;10.50;99.90;;;;;;7378184;19;20049;-65
2023/10/27 11:03:51;;;;;;;35.28;22.20;;;10.60;99.90;;;;;;7372682;19;21174;-66
2023/10/27 11:06:23;;;;;;;35.00;22.25;;;10.60;99.90;;;;;;7374121;19;20055;-67
2023/10/27 11:08:49;;;;;;;36.80;22.55;;;10.60;99.90;;;;;;7369162;19;20703;-66
2023/10/27 11:11:22;;;;;;;37.97;23.50;;;10.60;99.90;;;;;;7371731;19;20045;-66
2023/10/27 11:13:53;;;;;;;39.22;23.60;;;10.60;99.90;;;;;;7371820;19;20022;-65
2023/10/27 11:16:23;;;;;;;34.47;21.33;;;10.70;99.90;;;;;;7377230;19;20094;-66
2023/10/27 11:18:53;;;;;;;36.38;23.42;;;10.70;99.90;;;;;;7374638;19;20722;-66
2023/10/27 11:21:22;;;;;;;33.47;21.02;;;10.70;99.90;;;;;;7380935;19;20351;-66
2023/10/27 11:23:49;;;;;;;36.50;22.67;;;10.70;99.90;;;;;;7378595;19;20018;-66
2023/10/27 11:26:19;;;;;;;34.45;22.15;;;10.70;99.90;;;;;;7380257;19;20391;-66
2023/10/27 11:28:47;;;;;;;32.22;20.25;;;10.70;99.90;;;;;;7374976;19;20432;-64
2023/10/27 11:31:22;;;;;;;35.85;22.02;;;10.70;99.90;;;;;;7374146;19;20102;-71
2023/10/27 11:34:11;;;;;;;34.10;21.30;;;10.70;99.90;;;;;;7379483;19;20039;-69
2023/10/27 11:37:01;;;;;;;37.92;21.88;;;10.70;99.90;;;;;;7380902;19;20015;-70
2023/10/27 11:39:28;;;;;;;34.45;22.67;;;10.80;99.90;;;;;;7380416;19;20312;-68
2023/10/27 11:41:59;;;;;;;33.35;21.35;;;10.70;99.90;;;;;;7380655;19;20036;-68
2023/10/27 11:44:30;;;;;;;33.38;20.65;;;10.80;99.90;;;;;;7379576;19;20022;-69
2023/10/27 11:46:57;;;;;;;36.22;23.02;;;10.80;99.90;;;;;;7379739;19;20014;-68
2023/10/27 11:49:25;;;;;;;35.25;22.73;;;10.80;99.90;;;;;;7378409;19;20043;-67
2023/10/27 11:51:55;;;;;;;35.92;22.35;;;10.80;99.90;;;;;;7381003;19;20066;-68
2023/10/27 11:54:23;;;;;;;36.38;22.23;;;10.80;99.90;;;;;;7375759;19;20093;-65
2023/10/27 11:56:50;;;;;;;45.83;29.98;;;10.80;99.90;;;;;;7381282;19;20494;-64
2023/10/27 11:59:18;;;;;;;31.13;20.88;;;10.80;99.90;;;;;;7377132;19;20349;-64
2023/10/27 12:01:44;;;;;;;31.20;21.58;;;10.80;99.90;;;;;;7381685;19;20011;-64
2023/10/27 12:04:11;;;;;;;32.85;21.05;;;10.80;99.90;;;;;;7375762;19;20019;-64
2023/10/27 12:06:41;;;;;;;34.35;22.63;;;10.80;99.90;;;;;;7377756;19;20482;-64
2023/10/27 12:09:09;;;;;;;32.05;21.23;;;10.80;99.90;;;;;;7374213;19;20022;-64
2023/10/27 12:11:36;;;;;;;31.33;21.17;;;10.80;99.90;;;;;;7379098;19;20465;-65
2023/10/27 12:14:03;;;;;;;30.27;18.80;;;10.80;99.90;;;;;;7379872;19;20050;-64
2023/10/27 12:16:29;;;;;;;33.78;21.83;;;10.80;99.90;;;;;;7377789;19;20019;-64
2023/10/27 12:18:56;;;;;;;37.88;24.15;;;10.80;99.90;;;;;;7377966;19;20030;-64
2023/10/27 12:21:25;;;;;;;33.67;21.60;;;10.80;99.90;;;;;;7380833;19;20025;-64
2023/10/27 12:23:52;;;;;;;31.40;22.50;;;10.80;99.90;;;;;;7379633;19;20042;-65
2023/10/27 12:26:20;;;;;;;34.67;22.60;;;10.80;99.90;;;;;;7377444;19;20019;-65
2023/10/27 12:28:46;;;;;;;35.53;23.08;;;10.80;99.90;;;;;;7377686;19;20037;-64
2023/10/27 12:31:16;;;;;;;37.83;22.33;;;10.90;99.90;;;;;;7370072;19;20018;-64
2023/10/27 12:33:43;;;;;;;35.90;22.15;;;10.90;99.90;;;;;;7380934;19;20022;-65
2023/10/27 12:36:11;;;;;;;38.20;23.85;;;10.80;99.90;;;;;;7377113;19;20028;-65
2023/10/27 12:38:41;;;;;;;37.25;22.48;;;10.90;99.90;;;;;;7370732;19;20018;-66